Time;durP1;ratioP1;P1;durP2;ratioP2;P2;SDS_P1;SDS_P2;PMS_P1;PMS_P2;Temp;Humidity;BMP_temperature;BMP_pressure;BME280_temperature;BME280_humidity;BME280_pressure;Samples;Min_cycle;Max_cycle;Signal;HPM_P1;HPM_P2
2023/01/13 00:01:50;;;;;;;;;1.00;1.00;;;;;20.40;62.01;100063.05;110062;1250;21150;-66
2023/01/13 00:04:17;;;;;;;;;1.00;1.00;;;;;20.39;62.02;100060.69;110138;1265;18530;-66
2023/01/13 00:06:45;;;;;;;;;1.00;1.00;;;;;20.39;62.05;100057.55;110077;1250;20063;-66
2023/01/13 00:09:12;;;;;;;;;1.00;1.00;;;;;20.39;61.98;100054.31;110004;1251;21031;-66
2023/01/13 00:11:40;;;;;;;;;1.00;1.00;;;;;20.40;62.11;100048.80;110112;1250;19916;-67
2023/01/13 00:14:07;;;;;;;;;1.00;1.00;;;;;20.38;62.00;100045.35;110082;1250;18955;-65
2023/01/13 00:16:34;;;;;;;;;1.00;1.00;;;;;20.39;61.93;100043.80;110120;1264;19453;-66
2023/01/13 00:19:02;;;;;;;;;1.00;1.00;;;;;20.40;62.00;100046.60;110157;1265;18443;-66
2023/01/13 00:21:29;;;;;;;;;2.00;1.00;;;;;20.39;62.08;100045.41;110108;1259;18862;-65
2023/01/13 00:23:57;;;;;;;;;1.00;1.00;;;;;20.39;61.91;100044.83;110113;1249;20759;-67
2023/01/13 00:26:24;;;;;;;;;1.00;1.00;;;;;20.38;61.85;100046.06;110112;1265;22200;-65
2023/01/13 00:28:52;;;;;;;;;1.00;1.00;;;;;20.39;61.97;100046.45;110123;1257;18992;-67
2023/01/13 00:31:19;;;;;;;;;1.00;1.00;;;;;20.39;61.79;100046.70;110140;1265;19407;-64
2023/01/13 00:33:47;;;;;;;;;1.00;1.00;;;;;20.39;62.05;100039.22;110152;1249;18431;-66
2023/01/13 00:36:15;;;;;;;;;1.00;1.00;;;;;20.38;61.92;100039.27;110147;1265;18670;-66
2023/01/13 00:38:42;;;;;;;;;1.00;1.00;;;;;20.38;61.82;100038.98;110139;1265;19359;-65
2023/01/13 00:41:10;;;;;;;;;1.00;1.00;;;;;20.38;61.84;100035.92;110137;1263;18912;-66
2023/01/13 00:43:38;;;;;;;;;1.00;1.00;;;;;20.38;61.77;100038.64;110102;1265;22688;-65
2023/01/13 00:46:05;;;;;;;;;1.00;1.00;;;;;20.36;61.83;100027.13;110134;1265;19619;-65
2023/01/13 00:48:33;;;;;;;;;2.00;2.00;;;;;20.36;61.78;100029.80;110106;1249;19902;-66
2023/01/13 00:51:00;;;;;;;;;1.00;1.00;;;;;20.36;61.71;100025.65;110126;1264;18705;-65
2023/01/13 00:53:27;;;;;;;;;1.00;1.00;;;;;20.37;61.85;100021.59;110091;1250;22058;-66
2023/01/13 00:55:55;;;;;;;;;1.00;1.00;;;;;20.36;61.70;100023.98;110114;1265;18402;-67
2023/01/13 00:58:22;;;;;;;;;1.00;1.00;;;;;20.37;61.79;100014.35;110111;1250;19445;-66
2023/01/13 01:00:50;;;;;;;;;1.00;1.00;;;;;20.37;61.88;100011.41;110090;1261;19399;-66
2023/01/13 01:03:17;;;;;;;;;1.00;1.00;;;;;20.37;61.60;100009.28;110108;1264;19561;-66
2023/01/13 01:05:45;;;;;;;;;1.00;1.00;;;;;20.36;61.83;100007.56;110141;1265;19350;-65
2023/01/13 01:08:12;;;;;;;;;1.50;1.00;;;;;20.35;61.87;100010.33;110124;1265;20839;-65
2023/01/13 01:10:40;;;;;;;;;1.00;1.00;;;;;20.37;61.64;100007.98;110101;1250;22901;-66
2023/01/13 01:13:07;;;;;;;;;1.00;1.00;;;;;20.37;61.75;100003.27;110139;1264;18531;-66
2023/01/13 01:15:34;;;;;;;;;1.00;1.00;;;;;20.36;61.62;100005.35;110070;1259;20042;-65
2023/01/13 01:18:02;;;;;;;;;2.00;2.00;;;;;20.36;61.69;100003.85;110077;1250;22612;-65
2023/01/13 01:20:29;;;;;;;;;1.00;1.00;;;;;20.35;61.72;99998.59;110061;1264;18801;-65
2023/01/13 01:22:57;;;;;;;;;1.00;1.00;;;;;20.35;61.72;99998.17;110012;1250;20828;-65
2023/01/13 01:25:24;;;;;;;;;1.00;1.00;;;;;20.36;61.58;99991.23;110097;1250;19598;-69
2023/01/13 01:27:52;;;;;;;;;1.00;1.00;;;;;20.35;61.72;99991.56;110114;1249;28938;-67
2023/01/13 01:30:19;;;;;;;;;1.00;1.00;;;;;20.35;61.66;99985.19;110143;1265;19373;-66
2023/01/13 01:32:47;;;;;;;;;1.00;1.00;;;;;20.35;61.54;99984.78;110159;1249;18405;-66
2023/01/13 01:35:14;;;;;;;;;1.00;1.00;;;;;20.35;61.67;99984.58;110141;1250;20068;-67
2023/01/13 01:37:41;;;;;;;;;1.00;1.00;;;;;20.35;61.71;99978.42;110061;1256;19361;-67
2023/01/13 01:40:09;;;;;;;;;1.00;1.00;;;;;20.34;61.68;99972.00;110130;1265;22115;-66
2023/01/13 01:45:21;;;;;;;;;1.00;1.00;;;;;20.34;61.65;99968.42;110064;1265;19740;-67
2023/01/13 01:47:49;;;;;;;;;1.00;1.00;;;;;20.34;61.60;99969.28;110129;1251;19805;-66
2023/01/13 01:50:16;;;;;;;;;1.00;1.00;;;;;20.33;61.65;99968.46;110119;1265;21680;-66
2023/01/13 01:52:44;;;;;;;;;1.00;1.00;;;;;20.33;61.63;99963.61;110076;1265;19388;-67
2023/01/13 01:55:11;;;;;;;;;1.00;1.00;;;;;20.33;61.45;99956.94;110152;1265;19513;-66
2023/01/13 01:57:38;;;;;;;;;1.00;1.00;;;;;20.33;61.59;99955.48;110183;1264;18834;-67
2023/01/13 02:00:06;;;;;;;;;1.00;1.00;;;;;20.32;61.73;99951.54;110035;1250;20876;-67
2023/01/13 02:02:33;;;;;;;;;1.00;1.00;;;;;20.33;61.47;99949.33;110125;1249;18712;-68
2023/01/13 02:05:01;;;;;;;;;1.00;1.00;;;;;20.32;61.59;99945.59;110097;1259;20348;-67
2023/01/13 02:07:28;;;;;;;;;1.00;1.00;;;;;20.32;61.71;99945.80;110122;1265;21408;-68
2023/01/13 02:09:56;;;;;;;;;1.00;1.00;;;;;20.32;61.71;99940.73;110141;1265;18482;-67
2023/01/13 02:12:30;;;;;;;;;1.00;1.00;;;;;20.32;61.55;99938.17;110082;1265;18745;-66
2023/01/13 02:14:58;;;;;;;;;1.00;1.00;;;;;20.32;61.55;99940.19;110083;1265;21717;-67
2023/01/13 02:17:25;;;;;;;;;1.67;1.00;;;;;20.32;61.46;99939.86;110061;1251;23464;-66
2023/01/13 02:19:53;;;;;;;;;1.00;1.00;;;;;20.32;61.58;99938.14;110068;1250;18666;-66
2023/01/13 02:22:20;;;;;;;;;1.00;1.00;;;;;20.31;61.65;99933.36;110174;1251;20787;-64
2023/01/13 02:24:53;;;;;;;;;1.00;1.00;;;;;20.31;61.51;99932.14;110070;1265;18243;-67
2023/01/13 02:27:21;;;;;;;;;1.00;1.00;;;;;20.33;61.48;99931.77;110098;1250;20827;-66
2023/01/13 02:32:33;;;;;;;;;1.00;1.00;;;;;20.32;61.77;99931.48;110114;1249;19001;-66
2023/01/13 02:35:01;;;;;;;;;1.00;1.00;;;;;20.31;61.56;99926.11;110096;1265;18787;-66
2023/01/13 02:37:28;;;;;;;;;1.00;1.00;;;;;20.32;61.59;99924.27;110102;1264;21897;-70
2023/01/13 02:39:56;;;;;;;;;1.00;1.00;;;;;20.31;61.36;99923.98;110113;1250;18387;-67
2023/01/13 02:45:09;;;;;;;;;1.00;1.00;;;;;20.31;61.65;99920.00;110077;1257;20051;-66
2023/01/13 02:47:36;;;;;;;;;1.00;1.00;;;;;20.30;61.67;99921.70;110092;1265;18555;-65
2023/01/13 02:50:03;;;;;;;;;1.00;1.00;;;;;20.30;61.52;99917.37;109934;1265;22211;-65
2023/01/13 02:52:31;;;;;;;;;1.00;1.00;;;;;20.30;61.41;99913.27;110112;1264;19651;-66
2023/01/13 02:54:58;;;;;;;;;1.00;1.00;;;;;20.30;61.50;99915.98;110147;1265;18438;-66
2023/01/13 02:57:26;;;;;;;;;1.00;1.00;;;;;20.30;61.55;99909.83;110076;1265;19032;-65
2023/01/13 02:59:53;;;;;;;;;1.00;1.00;;;;;20.30;61.44;99909.23;110072;1251;21020;-66
2023/01/13 03:02:21;;;;;;;;;1.00;1.00;;;;;20.30;61.65;99910.45;110123;1250;19514;-66
2023/01/13 03:04:48;;;;;;;;;1.00;1.00;;;;;20.30;61.54;99911.20;110128;1249;22729;-67
2023/01/13 03:07:16;;;;;;;;;1.00;1.00;;;;;20.29;61.42;99912.91;110084;1265;22991;-66
2023/01/13 03:09:43;;;;;;;;;1.00;1.00;;;;;20.31;61.48;99910.84;109986;1257;18685;-64
2023/01/13 03:12:10;;;;;;;;;1.00;1.00;;;;;20.31;61.35;99905.31;110090;1264;19705;-66
2023/01/13 03:14:38;;;;;;;;;1.00;1.00;;;;;20.32;61.46;99906.27;110030;1253;20878;-67
2023/01/13 03:17:05;;;;;;;;;1.00;1.00;;;;;20.30;61.56;99903.92;110023;1264;18432;-64
2023/01/13 03:19:33;;;;;;;;;1.00;1.00;;;;;20.30;61.53;99904.84;110027;1250;20324;-68
2023/01/13 03:22:00;;;;;;;;;1.00;1.00;;;;;20.30;61.31;99905.80;110114;1265;19509;-66
2023/01/13 03:24:28;;;;;;;;;1.00;1.00;;;;;20.29;61.26;99900.83;110076;1250;18412;-67
2023/01/13 03:26:55;;;;;;;;;1.00;1.00;;;;;20.29;61.46;99898.80;110122;1264;18694;-65
2023/01/13 03:29:23;;;;;;;;;1.00;1.00;;;;;20.30;61.40;99900.20;110146;1249;21975;-66
2023/01/13 03:31:50;;;;;;;;;1.00;1.00;;;;;20.29;61.23;99900.45;110141;1265;18348;-65
2023/01/13 03:34:18;;;;;;;;;1.00;1.00;;;;;20.29;61.28;99896.80;110184;1264;18747;-67
2023/01/13 03:36:45;;;;;;;;;1.00;1.00;;;;;20.29;61.32;99896.05;110076;1265;22535;-66
2023/01/13 03:39:13;;;;;;;;;1.00;1.00;;;;;20.28;61.31;99900.55;110136;1250;19675;-68
2023/01/13 03:41:42;;;;;;;;;1.00;1.00;;;;;20.28;61.40;99901.11;110052;1249;23338;-65
2023/01/13 03:44:26;;;;;;;;;1.00;1.00;;;;;20.28;61.39;99895.49;110090;1263;19359;-65
2023/01/13 03:46:53;;;;;;;;;1.00;1.00;;;;;20.28;61.41;99892.94;110101;1264;20182;-66
2023/01/13 03:49:21;;;;;;;;;1.00;1.00;;;;;20.28;61.36;99892.27;110139;1256;18781;-65
2023/01/13 03:51:48;;;;;;;;;1.00;1.00;;;;;20.28;61.31;99893.85;110078;1257;19333;-66
2023/01/13 03:54:15;;;;;;;;;1.00;1.00;;;;;20.28;61.28;99891.16;110096;1265;22897;-65
2023/01/13 03:56:43;;;;;;;;;1.00;1.00;;;;;20.27;61.25;99891.25;110112;1263;18680;-65
2023/01/13 03:59:10;;;;;;;;;1.00;1.00;;;;;20.26;61.44;99888.60;110104;1263;19531;-65
2023/01/13 04:01:38;;;;;;;;;1.00;1.00;;;;;20.27;61.22;99891.80;110124;1265;18394;-66
2023/01/13 04:04:05;;;;;;;;;1.00;1.00;;;;;20.27;61.32;99892.73;110139;1252;20047;-66
2023/01/13 04:06:33;;;;;;;;;1.00;1.00;;;;;20.27;61.21;99893.98;110083;1256;22210;-66
2023/01/13 04:09:00;;;;;;;;;1.00;1.00;;;;;20.27;61.36;99895.09;110107;1265;18815;-66
2023/01/13 04:11:28;;;;;;;;;1.00;1.00;;;;;20.27;61.25;99894.01;110104;1264;23167;-65
2023/01/13 04:13:55;;;;;;;;;1.00;1.00;;;;;20.26;61.28;99891.52;110103;1263;19371;-66
2023/01/13 04:16:23;;;;;;;;;1.00;1.00;;;;;20.27;61.09;99891.79;110144;1251;19677;-66
2023/01/13 04:18:50;;;;;;;;;1.00;1.00;;;;;20.27;61.30;99890.02;110074;1258;20792;-65
2023/01/13 04:21:17;;;;;;;;;1.00;1.00;;;;;20.26;61.17;99893.37;110112;1265;23092;-67
2023/01/13 04:23:45;;;;;;;;;1.00;1.00;;;;;20.25;61.39;99889.64;110099;1265;19530;-65
2023/01/13 04:26:12;;;;;;;;;1.00;1.00;;;;;20.26;61.24;99884.86;110077;1252;20035;-66
2023/01/13 04:28:40;;;;;;;;;1.00;1.00;;;;;20.26;61.21;99886.63;110062;1265;19219;-65
2023/01/13 04:31:07;;;;;;;;;1.00;1.00;;;;;20.26;61.38;99887.00;110122;1264;18385;-66
2023/01/13 04:33:35;;;;;;;;;1.00;1.00;;;;;20.25;61.24;99881.10;110131;1263;20143;-66
2023/01/13 04:36:02;;;;;;;;;1.00;1.00;;;;;20.25;61.26;99883.23;110118;1264;19508;-65
2023/01/13 04:38:30;;;;;;;;;1.00;1.00;;;;;20.24;61.12;99884.20;110044;1265;19843;-65
2023/01/13 04:40:57;;;;;;;;;1.00;1.00;;;;;20.25;61.26;99879.84;110126;1250;22819;-66
2023/01/13 04:43:25;;;;;;;;;1.00;1.00;;;;;20.25;61.21;99884.77;110180;1248;20763;-66
2023/01/13 04:45:52;;;;;;;;;1.00;1.00;;;;;20.25;61.17;99882.85;110079;1251;19718;-67
2023/01/13 04:48:19;;;;;;;;;2.00;1.00;;;;;20.25;61.23;99880.96;110121;1265;18629;-65
2023/01/13 04:50:47;;;;;;;;;1.00;1.00;;;;;20.25;61.18;99887.04;110159;1265;19348;-67
2023/01/13 04:53:14;;;;;;;;;1.00;1.00;;;;;20.25;61.15;99885.58;110032;1256;18261;-66
2023/01/13 04:55:43;;;;;;;;;1.00;1.00;;;;;20.25;61.28;99886.62;110121;1250;20923;-66
2023/01/13 04:58:10;;;;;;;;;2.00;1.00;;;;;20.25;61.10;99883.36;110108;1265;20892;-66
2023/01/13 05:00:38;;;;;;;;;1.00;1.00;;;;;20.24;61.04;99884.95;110074;1249;19959;-67
2023/01/13 05:03:05;;;;;;;;;1.00;1.00;;;;;20.24;61.16;99887.45;110116;1264;18734;-66
2023/01/13 05:05:32;;;;;;;;;1.00;1.00;;;;;20.24;61.28;99891.47;110146;1263;19524;-66
2023/01/13 05:08:00;;;;;;;;;1.00;1.00;;;;;20.23;61.19;99889.25;110109;1265;19873;-65
2023/01/13 05:10:27;;;;;;;;;1.00;1.00;;;;;20.23;61.27;99889.58;110173;1265;18599;-67
2023/01/13 05:18:25;;;;;;;;;1.00;1.00;;;;;20.23;61.13;99892.13;109990;1264;20077;-66
2023/01/13 05:20:53;;;;;;;;;1.00;1.00;;;;;20.23;61.10;99895.58;110048;1256;21090;-65
2023/01/13 05:26:06;;;;;;;;;1.00;1.00;;;;;20.23;61.12;99893.18;110073;1265;21897;-65
2023/01/13 05:28:33;;;;;;;;;1.00;1.00;;;;;20.24;61.08;99893.77;110151;1264;19375;-66
2023/01/13 05:31:01;;;;;;;;;1.00;1.00;;;;;20.25;61.18;99896.96;110074;1263;19863;-65
2023/01/13 05:33:28;;;;;;;;;1.00;1.00;;;;;20.26;61.09;99896.80;110009;1263;18592;-62
2023/01/13 05:35:55;;;;;;;;;1.00;1.00;;;;;20.28;61.28;99898.16;110034;1260;19406;-64
2023/01/13 05:38:23;;;;;;;;;1.00;1.00;;;;;20.30;61.28;99898.05;110063;1250;20232;-63
2023/01/13 05:43:35;;;;;;;;;1.00;1.00;;;;;20.30;61.40;99902.33;110122;1251;22138;-65
2023/01/13 05:46:03;;;;;;;;;1.00;1.00;;;;;20.32;61.17;99901.41;110098;1251;19797;-66
2023/01/13 05:48:31;;;;;;;;;1.00;1.00;;;;;20.33;61.43;99899.59;110070;1251;19030;-66
2023/01/13 05:50:58;;;;;;;;;1.00;1.00;;;;;20.34;61.54;99895.46;110105;1256;20831;-66
2023/01/13 05:53:25;;;;;;;;;5.00;5.00;;;;;20.35;61.87;99893.89;109988;1265;140600;-67
2023/01/13 05:55:53;;;;;;;;;12.00;11.00;;;;;20.39;62.12;99893.44;110065;1256;18765;-66
2023/01/13 05:58:20;;;;;;;;;31.00;30.00;;;;;20.38;62.63;99895.61;110145;1265;19456;-66
2023/01/13 06:00:48;;;;;;;;;18.00;17.50;;;;;20.40;62.80;99898.13;110104;1265;18574;-66
2023/01/13 06:03:16;;;;;;;;;14.00;14.00;;;;;20.41;62.80;99897.42;110085;1265;19090;-67
2023/01/13 06:05:43;;;;;;;;;15.00;14.50;;;;;20.43;62.80;99903.75;110159;1265;19750;-67
2023/01/13 06:08:11;;;;;;;;;11.00;11.00;;;;;20.43;62.51;99898.68;110102;1265;18615;-67
2023/01/13 06:10:38;;;;;;;;;10.00;8.00;;;;;20.43;62.55;99899.06;110104;1259;18847;-66
2023/01/13 06:13:05;;;;;;;;;6.33;5.00;;;;;20.43;62.40;99902.53;110084;1250;21006;-66
2023/01/13 06:15:33;;;;;;;;;8.00;7.00;;;;;20.40;62.25;99900.73;110051;1265;18560;-66
2023/01/13 06:18:00;;;;;;;;;8.00;8.00;;;;;20.39;62.36;99902.59;110047;1265;20143;-67
2023/01/13 06:20:28;;;;;;;;;5.00;5.00;;;;;20.38;62.10;99902.44;109992;1250;23187;-69
2023/01/13 06:22:55;;;;;;;;;8.00;7.00;;;;;20.36;61.93;99910.84;109937;1265;19585;-66
2023/01/13 06:25:23;;;;;;;;;4.00;4.00;;;;;20.35;62.03;99909.30;109960;1251;20078;-66
2023/01/13 06:27:51;;;;;;;;;4.00;4.00;;;;;20.34;62.01;99909.23;110087;1250;19868;-67
2023/01/13 06:30:18;;;;;;;;;7.00;5.00;;;;;20.34;62.07;99907.79;110072;1250;19799;-67
2023/01/13 06:32:46;;;;;;;;;2.00;2.00;;;;;20.34;62.00;99913.12;109942;1256;18650;-66
2023/01/13 06:35:13;;;;;;;;;7.00;5.00;;;;;20.33;62.03;99913.54;109952;1265;22672;-67
2023/01/13 06:37:40;;;;;;;;;4.00;4.00;;;;;20.34;61.92;99918.39;109998;1249;19497;-66
2023/01/13 06:40:08;;;;;;;;;4.50;4.00;;;;;20.34;61.83;99921.11;110132;1265;18870;-66
2023/01/13 06:45:20;;;;;;;;;1.50;1.50;;;;;20.33;61.89;99928.05;110129;1253;19609;-65
2023/01/13 06:47:48;;;;;;;;;2.00;2.00;;;;;20.31;61.88;99926.11;110143;1259;18588;-67
2023/01/13 06:50:15;;;;;;;;;2.00;2.00;;;;;20.32;61.97;99926.20;110093;1257;20291;-67
2023/01/13 06:52:43;;;;;;;;;2.00;2.00;;;;;20.33;62.10;99924.84;110051;1251;19923;-67
2023/01/13 06:55:10;;;;;;;;;1.00;1.00;;;;;20.37;62.03;99925.51;110109;1250;18716;-66
2023/01/13 06:57:38;;;;;;;;;4.00;4.00;;;;;20.39;61.98;99924.77;110132;1259;20909;-67
2023/01/13 07:00:05;;;;;;;;;2.00;2.00;;;;;20.37;62.20;99925.89;110184;1250;19614;-66
2023/01/13 07:02:33;;;;;;;;;1.00;1.00;;;;;20.37;62.22;99928.10;110150;1265;18851;-67
2023/01/13 07:05:00;;;;;;;;;1.50;1.50;;;;;20.36;62.38;99932.70;110163;1265;19884;-66
2023/01/13 07:07:28;;;;;;;;;2.00;2.00;;;;;20.35;62.29;99928.42;110073;1250;20184;-67
2023/01/13 07:09:55;;;;;;;;;1.00;1.00;;;;;20.33;62.24;99931.11;110078;1258;18933;-66
2023/01/13 07:12:22;;;;;;;;;1.00;1.00;;;;;20.33;62.45;99932.65;110096;1257;20758;-67
2023/01/13 07:17:35;;;;;;;;;1.00;1.00;;;;;20.32;62.35;99930.98;110095;1265;19985;-66
2023/01/13 07:20:02;;;;;;;;;1.00;1.00;;;;;20.31;62.39;99927.87;110061;1251;22184;-67
2023/01/13 07:22:30;;;;;;;;;1.00;1.00;;;;;20.30;62.29;99934.82;110125;1250;18295;-67
2023/01/13 07:24:58;;;;;;;;;1.00;1.00;;;;;20.31;62.32;99936.88;110105;1256;19867;-67
2023/01/13 07:27:25;;;;;;;;;1.00;1.00;;;;;20.30;62.35;99940.23;110111;1264;20831;-66
2023/01/13 07:29:52;;;;;;;;;1.00;1.00;;;;;20.30;62.33;99942.98;110092;1249;19617;-69
2023/01/13 07:32:20;;;;;;;;;1.50;1.50;;;;;20.29;62.42;99947.80;110127;1264;22217;-66
2023/01/13 07:34:48;;;;;;;;;1.00;1.00;;;;;20.28;62.23;99945.69;110076;1256;19394;-66
2023/01/13 07:37:16;;;;;;;;;1.00;1.00;;;;;20.28;62.60;99944.27;110132;1265;22985;-66
2023/01/13 07:39:45;;;;;;;;;1.00;1.00;;;;;20.28;62.29;99944.33;110032;1265;18940;-67
2023/01/13 07:44:57;;;;;;;;;1.00;1.00;;;;;20.27;62.36;99953.41;110028;1265;18536;-67
2023/01/13 07:47:25;;;;;;;;;1.00;1.00;;;;;20.26;62.30;99951.85;110057;1251;18859;-65
2023/01/13 07:49:52;;;;;;;;;1.00;1.00;;;;;20.26;62.32;99955.28;110018;1250;20769;-67
2023/01/13 07:52:20;;;;;;;;;1.00;1.00;;;;;20.26;62.39;99949.96;109964;1259;19459;-66
2023/01/13 07:54:48;;;;;;;;;1.00;1.00;;;;;20.27;62.30;99953.90;110096;1265;18696;-65
2023/01/13 07:57:15;;;;;;;;;1.00;1.00;;;;;20.27;62.19;99954.92;110174;1250;22732;-67
2023/01/13 07:59:43;;;;;;;;;1.00;1.00;;;;;20.27;62.34;99956.59;110182;1265;18431;-66
2023/01/13 08:02:10;;;;;;;;;1.00;1.00;;;;;20.25;62.27;99952.84;110185;1251;21323;-66
2023/01/13 08:04:38;;;;;;;;;1.00;1.00;;;;;20.25;62.13;99957.03;110131;1248;19649;-67
2023/01/13 08:07:05;;;;;;;;;1.00;1.00;;;;;20.24;62.24;99957.98;110132;1265;18415;-67
2023/01/13 08:09:33;;;;;;;;;1.00;1.00;;;;;20.24;62.22;99959.08;110202;1257;18659;-67
2023/01/13 08:14:49;;;;;;;;;1.00;1.00;;;;;20.24;62.15;99968.30;110147;1264;18345;-67
2023/01/13 08:17:17;;;;;;;;;1.00;1.00;;;;;20.27;62.06;99970.23;110178;1258;19368;-67
2023/01/13 08:19:44;;;;;;;;;1.00;1.00;;;;;20.28;62.23;99968.38;110049;1265;19866;-67
2023/01/13 08:22:12;;;;;;;;;1.00;1.00;;;;;20.27;62.00;99966.93;110141;1250;23519;-67
2023/01/13 08:24:39;;;;;;;;;1.00;1.00;;;;;20.28;62.06;99965.73;110088;1265;18649;-66
2023/01/13 08:27:06;;;;;;;;;2.50;1.50;;;;;20.28;62.17;99967.83;109985;1265;20697;-67
2023/01/13 08:29:34;;;;;;;;;2.00;1.00;;;;;20.29;62.23;99967.55;110077;1250;19673;-66
2023/01/13 08:32:01;;;;;;;;;1.00;1.00;;;;;20.28;62.21;99969.70;110072;1250;20418;-68
2023/01/13 08:34:29;;;;;;;;;1.00;1.00;;;;;20.27;62.14;99966.52;110091;1250;20775;-68
2023/01/13 08:36:57;;;;;;;;;1.00;1.00;;;;;20.29;62.10;99977.55;110003;1265;22643;-65
2023/01/13 08:39:24;;;;;;;;;1.50;1.50;;;;;20.31;62.09;99975.14;110000;1250;19892;-63
2023/01/13 08:41:55;;;;;;;;;1.00;1.00;;;;;20.35;62.34;99979.54;110097;1265;20734;-65
2023/01/13 08:44:23;;;;;;;;;1.00;1.00;;;;;20.38;62.32;99982.24;110009;1264;18548;-66
2023/01/13 08:46:50;;;;;;;;;1.00;1.00;;;;;20.38;62.44;99974.84;110057;1265;18771;-67
2023/01/13 08:49:18;;;;;;;;;2.00;2.00;;;;;20.39;62.47;99979.80;110101;1264;19367;-67
2023/01/13 08:51:45;;;;;;;;;1.00;1.00;;;;;20.39;62.70;99984.98;110012;1265;18662;-65
2023/01/13 08:54:13;;;;;;;;;1.00;1.00;;;;;20.41;62.75;99989.13;110020;1256;18817;-67
2023/01/13 08:56:41;;;;;;;;;1.00;1.00;;;;;20.41;62.77;99988.20;109990;1251;20893;-66
2023/01/13 08:59:08;;;;;;;;;2.00;1.00;;;;;20.41;62.60;99991.97;110020;1250;20897;-67
2023/01/13 09:01:38;;;;;;;;;1.50;1.50;;;;;20.43;62.63;99995.16;110060;1255;18884;-67
2023/01/13 09:04:05;;;;;;;;;1.00;1.00;;;;;20.43;62.65;99997.17;110139;1265;22208;-67
2023/01/13 09:06:33;;;;;;;;;2.00;2.00;;;;;20.43;62.82;99999.60;110034;1250;23644;-67
2023/01/13 09:09:01;;;;;;;;;1.00;1.00;;;;;20.41;62.54;99998.41;110072;1250;18671;-67
2023/01/13 09:14:13;;;;;;;;;1.00;1.00;;;;;20.40;62.68;100006.27;110016;1257;19613;-66
2023/01/13 09:16:41;;;;;;;;;1.00;1.00;;;;;20.39;62.61;100006.63;110083;1250;18628;-66
2023/01/13 09:19:08;;;;;;;;;2.00;1.00;;;;;20.36;62.76;100004.27;110106;1256;19375;-67
2023/01/13 09:21:36;;;;;;;;;1.50;1.50;;;;;20.35;62.46;100002.98;109982;1259;23092;-66
2023/01/13 09:24:03;;;;;;;;;1.00;1.00;;;;;20.33;62.61;100002.11;110022;1265;18657;-67
2023/01/13 09:26:31;;;;;;;;;1.00;1.00;;;;;20.32;62.61;100001.65;110028;1249;19296;-68
2023/01/13 09:28:58;;;;;;;;;1.00;1.00;;;;;20.31;62.70;100000.67;110040;1257;18405;-69
2023/01/13 09:31:25;;;;;;;;;1.00;1.00;;;;;20.30;62.56;99996.83;110125;1250;19136;-67
2023/01/13 09:36:39;;;;;;;;;1.00;1.00;;;;;20.30;62.77;99995.41;110063;1264;19733;-67
2023/01/13 09:39:06;;;;;;;;;1.00;1.00;;;;;20.30;62.70;99997.70;110079;1265;18705;-68
2023/01/13 09:44:19;;;;;;;;;1.00;1.00;;;;;20.30;62.67;99992.55;110080;1265;18633;-67
2023/01/13 09:46:47;;;;;;;;;1.00;1.00;;;;;20.30;62.53;99992.69;110020;1251;21393;-68
2023/01/13 09:49:19;;;;;;;;;1.00;1.00;;;;;20.31;62.59;99990.45;109923;1250;19413;-69
2023/01/13 09:51:47;;;;;;;;;1.00;1.00;;;;;20.30;62.58;99990.54;110044;1250;18318;-69
2023/01/13 09:54:15;;;;;;;;;1.67;1.00;;;;;20.30;62.40;99988.91;110045;1265;23199;-68
2023/01/13 09:56:42;;;;;;;;;1.00;1.00;;;;;20.30;62.51;99983.14;110046;1250;21014;-68
2023/01/13 09:59:10;;;;;;;;;1.50;1.50;;;;;20.30;62.30;99982.33;110071;1250;21302;-66
2023/01/13 10:01:37;;;;;;;;;1.67;1.00;;;;;20.30;62.42;99978.52;110136;1265;18752;-67
2023/01/13 10:04:05;;;;;;;;;1.00;1.00;;;;;20.28;62.43;99967.87;110050;1265;19368;-67
2023/01/13 10:06:32;;;;;;;;;1.00;1.00;;;;;20.29;62.34;99967.42;110067;1265;18383;-67
2023/01/13 10:09:01;;;;;;;;;1.00;1.00;;;;;20.29;62.47;99963.03;110112;1265;18736;-68
2023/01/13 10:14:14;;;;;;;;;2.00;2.00;;;;;20.32;62.00;99962.63;110069;1265;18520;-69
2023/01/13 10:16:42;;;;;;;;;1.00;1.00;;;;;20.31;62.24;99956.13;110081;1250;21344;-66
2023/01/13 10:19:09;;;;;;;;;1.00;1.00;;;;;20.31;62.18;99949.27;110104;1258;19407;-67
2023/01/13 10:21:36;;;;;;;;;2.00;1.00;;;;;20.30;62.19;99950.73;110087;1251;19915;-66
2023/01/13 10:24:06;;;;;;;;;1.00;1.00;;;;;20.30;62.16;99946.20;109995;1265;18605;-67
2023/01/13 10:26:33;;;;;;;;;1.00;1.00;;;;;20.32;61.97;99944.21;109893;1257;23416;-68
2023/01/13 10:29:01;;;;;;;;;1.00;1.00;;;;;20.33;62.15;99946.39;110163;1264;18392;-66
2023/01/13 10:31:29;;;;;;;;;1.00;1.00;;;;;20.32;62.05;99943.59;110129;1265;19867;-66
2023/01/13 10:33:57;;;;;;;;;1.00;1.00;;;;;20.32;62.05;99939.69;110082;1256;19343;-66
2023/01/13 10:36:24;;;;;;;;;1.00;1.00;;;;;20.32;62.04;99942.70;110099;1265;18396;-67
2023/01/13 10:38:52;;;;;;;;;1.00;1.00;;;;;20.32;61.97;99942.45;110076;1259;18611;-67
2023/01/13 10:41:19;;;;;;;;;1.00;1.00;;;;;20.33;61.99;99944.75;110106;1265;20605;-66
2023/01/13 10:43:47;;;;;;;;;1.00;1.00;;;;;20.32;61.75;99940.17;110096;1264;22217;-68
2023/01/13 10:46:15;;;;;;;;;1.00;1.00;;;;;20.31;61.94;99945.20;110146;1250;21347;-66
2023/01/13 10:48:43;;;;;;;;;1.00;1.00;;;;;20.31;62.04;99950.61;110059;1257;19498;-67
2023/01/13 10:51:10;;;;;;;;;1.00;1.00;;;;;20.31;61.73;99949.73;110085;1265;18868;-66
2023/01/13 10:53:38;;;;;;;;;1.00;1.00;;;;;20.31;61.90;99946.42;110135;1265;18994;-67
2023/01/13 10:56:06;;;;;;;;;1.00;1.00;;;;;20.32;61.81;99947.85;110120;1265;19366;-67
2023/01/13 10:58:33;;;;;;;;;1.00;1.00;;;;;20.32;61.92;99947.48;110057;1265;18476;-68
2023/01/13 11:01:02;;;;;;;;;1.00;1.00;;;;;20.32;61.58;99946.68;110144;1249;20874;-68
2023/01/13 11:03:30;;;;;;;;;1.00;1.00;;;;;20.31;61.76;99948.44;110096;1250;19701;-68
2023/01/13 11:05:58;;;;;;;;;2.00;1.00;;;;;20.29;61.86;99945.75;110085;1265;18367;-67
2023/01/13 11:08:25;;;;;;;;;1.00;1.00;;;;;20.29;61.80;99944.85;110085;1265;21265;-67
2023/01/13 11:10:53;;;;;;;;;2.00;1.00;;;;;20.29;61.85;99950.21;110082;1250;20827;-67
2023/01/13 11:13:21;;;;;;;;;1.00;1.00;;;;;20.30;61.93;99949.30;110116;1251;18467;-67
2023/01/13 11:15:48;;;;;;;;;2.00;1.00;;;;;20.29;61.72;99954.91;110068;1264;20054;-69
2023/01/13 11:18:16;;;;;;;;;1.00;1.00;;;;;20.29;61.65;99953.78;110103;1249;24872;-66
2023/01/13 11:20:44;;;;;;;;;1.00;1.00;;;;;20.29;61.83;99952.02;110083;1264;22450;-67
2023/01/13 11:23:11;;;;;;;;;1.00;1.00;;;;;20.30;61.70;99944.45;110064;1264;21536;-67
2023/01/13 11:25:41;;;;;;;;;1.00;1.00;;;;;20.30;61.60;99940.30;110138;1265;19370;-69
2023/01/13 11:28:08;;;;;;;;;1.00;1.00;;;;;20.30;61.71;99938.46;110080;1256;22696;-70
2023/01/13 11:30:36;;;;;;;;;1.00;1.00;;;;;20.30;61.74;99940.13;110043;1256;18816;-67
2023/01/13 11:33:03;;;;;;;;;1.00;1.00;;;;;20.30;61.72;99939.38;110122;1265;19377;-65
2023/01/13 11:35:31;;;;;;;;;1.00;1.00;;;;;20.30;61.49;99937.88;110076;1265;18345;-66
2023/01/13 11:38:00;;;;;;;;;1.00;1.00;;;;;20.30;61.55;99934.82;110117;1264;19116;-67
2023/01/13 11:40:27;;;;;;;;;1.00;1.00;;;;;20.30;61.62;99942.27;110087;1256;19564;-68
2023/01/13 11:42:55;;;;;;;;;1.00;1.00;;;;;20.28;61.44;99946.61;110077;1250;19643;-67
2023/01/13 11:45:22;;;;;;;;;1.00;1.00;;;;;20.27;61.57;99937.47;110046;1251;20201;-68
2023/01/13 11:47:49;;;;;;;;;1.00;1.00;;;;;20.30;61.54;99936.70;110046;1257;19638;-68
2023/01/13 11:50:17;;;;;;;;;1.00;1.00;;;;;20.28;61.75;99936.98;110063;1265;18412;-67
2023/01/13 11:52:45;;;;;;;;;1.00;1.00;;;;;20.28;61.64;99936.44;110054;1251;21570;-68
2023/01/13 11:55:12;;;;;;;;;1.00;1.00;;;;;20.28;61.62;99937.27;110132;1265;19313;-67
2023/01/13 11:57:39;;;;;;;;;2.00;1.00;;;;;20.27;61.56;99935.84;110088;1250;22075;-67
2023/01/13 12:00:07;;;;;;;;;1.50;1.00;;;;;20.29;61.44;99935.45;110053;1264;19992;-66
2023/01/13 12:02:34;;;;;;;;;1.00;1.00;;;;;20.27;61.55;99930.77;110063;1250;19583;-65
2023/01/13 12:05:02;;;;;;;;;1.00;1.00;;;;;20.27;61.48;99931.52;110069;1258;18326;-69
2023/01/13 12:07:29;;;;;;;;;1.00;1.00;;;;;20.28;61.57;99929.27;110093;1265;20071;-66